Time;durP1;ratioP1;P1;durP2;ratioP2;P2;SDS_P1;SDS_P2;PMS_P1;PMS_P2;Temp;Humidity;BMP_temperature;BMP_pressure;BME280_temperature;BME280_humidity;BME280_pressure;Samples;Min_cycle;Max_cycle;Signal;HPM_P1;HPM_P2
2021/12/07 00:03:20;;;;;;;7.63;4.03;;;12.30;52.40;;;;;;20706891;28;20388;-78
2021/12/07 00:13:22;;;;;;;6.88;3.97;;;12.30;52.50;;;;;;20706588;28;20034;-78
2021/12/07 00:23:22;;;;;;;8.10;4.22;;;12.30;52.60;;;;;;20706125;28;20087;-79
2021/12/07 00:43:28;;;;;;;9.52;4.45;;;12.30;52.60;;;;;;20722082;28;20072;-78
2021/12/07 00:53:30;;;;;;;6.88;4.00;;;12.30;52.70;;;;;;20736880;28;20637;-78
2021/12/07 01:03:30;;;;;;;6.95;3.58;;;12.30;52.70;;;;;;20720147;28;20056;-78
2021/12/07 01:34:37;;;;;;;8.25;5.57;;;12.20;52.70;;;;;;20734937;28;20038;-78
2021/12/07 01:45:06;;;;;;;6.18;3.47;;;12.30;52.70;;;;;;20737065;28;20152;-77
2021/12/07 02:05:24;;;;;;;7.72;3.95;;;12.20;52.80;;;;;;20730370;28;20484;-78
2021/12/07 02:15:25;;;;;;;7.47;4.18;;;12.20;52.80;;;;;;20713989;28;20037;-78
2021/12/07 02:25:28;;;;;;;7.78;4.53;;;12.20;52.90;;;;;;20713598;28;20443;-78
2021/12/07 02:35:29;;;;;;;6.90;4.22;;;12.20;52.90;;;;;;20713514;28;20056;-77
2021/12/07 02:45:33;;;;;;;8.80;4.88;;;12.10;52.90;;;;;;20713973;28;20033;-78
2021/12/07 02:55:34;;;;;;;8.57;4.88;;;12.10;52.90;;;;;;20710440;28;20095;-78
2021/12/07 03:26:35;;;;;;;9.23;4.85;;;12.10;53.00;;;;;;21143797;27;20384;-77
2021/12/07 03:36:36;;;;;;;7.55;4.07;;;12.00;53.20;;;;;;21125988;28;20119;-76
2021/12/07 03:46:37;;;;;;;9.48;5.40;;;11.90;53.40;;;;;;21107572;28;20036;-75
2021/12/07 03:56:38;;;;;;;7.75;4.53;;;11.80;53.60;;;;;;21123534;28;20032;-76
2021/12/07 04:06:41;;;;;;;9.52;4.53;;;11.70;53.80;;;;;;21106933;28;20035;-76
2021/12/07 04:16:41;;;;;;;9.23;4.80;;;11.60;54.20;;;;;;21122140;28;20038;-76
2021/12/07 04:26:43;;;;;;;7.45;4.45;;;11.40;54.50;;;;;;21054355;28;20032;-76
2021/12/07 04:36:43;;;;;;;9.25;4.82;;;11.30;54.70;;;;;;20954438;28;20036;-77
2021/12/07 04:47:11;;;;;;;7.75;4.10;;;11.30;54.90;;;;;;20980287;28;20044;-77
2021/12/07 05:07:33;;;;;;;7.10;4.15;;;11.30;55.10;;;;;;20981536;28;20032;-74
2021/12/07 05:17:58;;;;;;;5.97;3.75;;;11.40;54.90;;;;;;20994684;28;20106;-77
2021/12/07 05:38:18;;;;;;;8.30;4.05;;;13.40;50.80;;;;;;20979923;28;20036;-79
2021/12/07 05:48:19;;;;;;;6.55;3.42;;;14.30;48.80;;;;;;20975831;28;20130;-76
2021/12/07 05:58:19;;;;;;;6.40;3.60;;;15.10;46.90;;;;;;20998475;28;20041;-80
2021/12/07 06:08:21;;;;;;;7.45;4.43;;;15.70;45.30;;;;;;20961141;28;20032;-79
2021/12/07 06:18:22;;;;;;;7.20;4.15;;;16.10;44.30;;;;;;21022981;28;20056;-82
2021/12/07 06:28:22;;;;;;;6.53;3.38;;;16.10;43.90;;;;;;20957989;28;20044;-79
2021/12/07 06:38:32;;;;;;;6.43;4.00;;;16.10;43.90;;;;;;20995922;28;20113;-77
2021/12/07 06:48:33;;;;;;;5.75;3.80;;;15.80;44.00;;;;;;21002875;28;20040;-78
2021/12/07 06:58:34;;;;;;;6.00;3.75;;;15.00;45.40;;;;;;20969212;28;20047;-77
2021/12/07 07:08:36;;;;;;;6.15;4.07;;;14.20;46.90;;;;;;20986045;28;20043;-78
2021/12/07 07:18:37;;;;;;;6.18;3.33;;;13.60;48.10;;;;;;20986701;28;20024;-77
2021/12/07 07:28:38;;;;;;;5.45;3.63;;;13.10;49.20;;;;;;21035525;28;20039;-77
2021/12/07 07:38:38;;;;;;;8.97;3.37;;;12.80;50.10;;;;;;21038347;28;20052;-76
2021/12/07 07:48:39;;;;;;;7.80;3.93;;;12.50;50.60;;;;;;20968183;28;20355;-77
2021/12/07 07:58:40;;;;;;;6.40;3.83;;;12.40;51.20;;;;;;20957990;28;20298;-76
2021/12/07 08:08:40;;;;;;;5.47;3.40;;;12.30;51.40;;;;;;20992561;28;20040;-77
2021/12/07 08:18:44;;;;;;;8.02;3.50;;;12.30;51.70;;;;;;21001972;28;20314;-76
2021/12/07 08:28:45;;;;;;;7.93;3.58;;;12.30;51.80;;;;;;20982382;28;20079;-74
2021/12/07 08:38:46;;;;;;;6.10;4.15;;;12.30;52.00;;;;;;21037422;28;20040;-75
2021/12/07 08:48:47;;;;;;;6.15;3.78;;;12.30;52.10;;;;;;21045924;28;20050;-74
2021/12/07 09:09:06;;;;;;;8.40;4.47;;;12.20;52.30;;;;;;21078535;28;20036;-75
2021/12/07 09:19:07;;;;;;;6.80;3.67;;;12.10;52.40;;;;;;21007070;28;20084;-75
2021/12/07 09:29:07;;;;;;;6.75;4.13;;;12.10;52.50;;;;;;21059240;28;20131;-76
2021/12/07 09:39:14;;;;;;;6.53;3.92;;;12.20;52.60;;;;;;21059156;28;20032;-76
2021/12/07 09:49:14;;;;;;;8.00;4.07;;;12.10;52.50;;;;;;21075654;28;20055;-77
2021/12/07 09:59:15;;;;;;;5.53;3.22;;;12.10;52.60;;;;;;21073898;28;20089;-76
2021/12/07 10:09:16;;;;;;;5.93;4.00;;;12.10;52.60;;;;;;21045334;28;20127;-75
2021/12/07 10:19:27;;;;;;;6.82;3.63;;;12.10;52.60;;;;;;21073872;28;20382;-75
2021/12/07 10:29:27;;;;;;;6.80;3.70;;;12.10;52.70;;;;;;21071749;28;20116;-75
2021/12/07 10:39:32;;;;;;;9.63;3.72;;;12.00;52.60;;;;;;21070037;28;20565;-78
2021/12/07 10:49:36;;;;;;;8.77;4.43;;;12.00;52.70;;;;;;20970552;28;20079;-73
2021/12/07 10:59:37;;;;;;;4.18;2.90;;;12.00;52.80;;;;;;21026938;28;20039;-74
2021/12/07 11:09:52;;;;;;;5.43;3.00;;;12.00;52.90;;;;;;21053265;28;20036;-74
2021/12/07 11:19:53;;;;;;;6.80;3.45;;;12.40;52.40;;;;;;21282755;22;20080;-80
2021/12/07 11:30:08;;;;;;;6.50;3.70;;;13.30;50.50;;;;;;20807665;28;20038;-79
2021/12/07 11:40:09;;;;;;;6.93;4.00;;;14.10;48.70;;;;;;20839898;28;20559;-79
2021/12/07 11:50:28;;;;;;;4.93;2.95;;;14.80;47.10;;;;;;20835189;28;20037;-75
2021/12/07 12:00:35;;;;;;;5.40;3.10;;;15.50;45.40;;;;;;20819877;28;20047;-78
2021/12/07 12:10:36;;;;;;;5.97;3.47;;;16.00;44.40;;;;;;20820250;28;20036;-79
2021/12/07 12:21:18;;;;;;;4.72;2.75;;;16.20;43.90;;;;;;20822018;28;20140;-81
2021/12/07 12:31:20;;;;;;;4.93;3.20;;;16.20;43.70;;;;;;20824122;28;20120;-79
2021/12/07 12:41:21;;;;;;;5.72;3.40;;;15.90;43.90;;;;;;20831390;28;20090;-76
2021/12/07 12:51:22;;;;;;;6.28;3.47;;;15.10;45.10;;;;;;20816274;28;20117;-73
2021/12/07 13:01:26;;;;;;;5.82;3.83;;;14.40;46.50;;;;;;20819119;28;20049;-76
2021/12/07 13:11:41;;;;;;;6.00;3.72;;;13.80;47.70;;;;;;20835720;28;20033;-75
2021/12/07 13:21:42;;;;;;;5.90;3.25;;;13.30;48.80;;;;;;20831596;28;20402;-74
2021/12/07 13:31:45;;;;;;;7.03;3.25;;;13.00;49.60;;;;;;20797061;28;20033;-77
2021/12/07 13:41:47;;;;;;;5.80;3.33;;;12.80;50.10;;;;;;20829630;28;20068;-74
2021/12/07 13:51:48;;;;;;;5.80;3.17;;;12.80;50.50;;;;;;20829707;28;20041;-76
2021/12/07 14:01:54;;;;;;;7.25;3.40;;;12.80;50.70;;;;;;20814754;28;20305;-77
2021/12/07 14:11:56;;;;;;;;;;;12.80;50.80;;;;;;20816698;28;20541;-77
2021/12/07 14:21:56;;;;;;;5.85;3.95;;;12.80;50.70;;;;;;20815878;28;19917;-78
2021/12/07 14:31:58;;;;;;;8.98;3.15;;;12.80;50.80;;;;;;20815014;28;20051;-79
2021/12/07 14:42:01;;;;;;;6.85;3.47;;;12.80;50.90;;;;;;20838321;28;20422;-76
2021/12/07 14:52:02;;;;;;;5.82;3.33;;;12.80;51.00;;;;;;20889055;28;20039;-73
2021/12/07 15:02:03;;;;;;;5.32;3.45;;;12.70;51.90;;;;;;20845954;28;20056;-73
2021/12/07 15:12:05;;;;;;;5.35;3.28;;;12.60;51.40;;;;;;20822659;28;20064;-75
2021/12/07 15:22:05;;;;;;;4.28;2.88;;;12.60;51.60;;;;;;20821621;28;20037;-72
2021/12/07 15:32:08;;;;;;;4.85;2.97;;;12.50;51.80;;;;;;20803501;28;20173;-73
2021/12/07 15:42:11;;;;;;;4.25;2.67;;;12.40;52.00;;;;;;20804951;28;20045;-74
2021/12/07 15:52:13;;;;;;;4.32;2.88;;;13.00;51.10;;;;;;20804552;28;20069;-74
2021/12/07 16:02:14;;;;;;;11.25;3.10;;;13.80;49.40;;;;;;20820859;28;20099;-73
2021/12/07 16:12:16;;;;;;;5.25;2.67;;;14.60;47.80;;;;;;20803556;28;20029;-73
2021/12/07 16:22:16;;;;;;;4.55;2.78;;;15.40;46.20;;;;;;20807955;28;20041;-74
2021/12/07 16:32:18;;;;;;;4.32;2.50;;;15.80;45.20;;;;;;20828829;28;20037;-74
2021/12/07 16:42:19;;;;;;;5.72;3.20;;;15.90;44.60;;;;;;20831332;28;20068;-77
2021/12/07 16:52:20;;;;;;;6.18;2.63;;;15.90;44.50;;;;;;20829648;28;20029;-73
2021/12/07 17:02:20;;;;;;;4.45;2.47;;;15.60;44.70;;;;;;20730385;28;20049;-75
2021/12/07 17:12:21;;;;;;;6.27;3.60;;;14.90;45.90;;;;;;20731736;28;20034;-75
2021/12/07 17:22:22;;;;;;;5.22;2.60;;;14.10;47.20;;;;;;20729302;28;20372;-75
2021/12/07 17:32:22;;;;;;;5.95;3.00;;;13.50;48.50;;;;;;20730090;28;20038;-74
2021/12/07 17:42:23;;;;;;;6.13;3.28;;;13.10;49.70;;;;;;20730739;28;20104;-76
2021/12/07 17:52:24;;;;;;;5.25;3.08;;;12.70;50.50;;;;;;20747089;28;20125;-78
2021/12/07 18:02:25;;;;;;;6.45;3.45;;;12.50;51.20;;;;;;20731504;28;20095;-74
2021/12/07 18:12:25;;;;;;;4.47;2.53;;;12.40;51.80;;;;;;20729708;28;20056;-75
2021/12/07 18:22:26;;;;;;;3.45;2.30;;;12.30;52.20;;;;;;20729386;28;20185;-78
2021/12/07 18:32:26;;;;;;;4.78;2.67;;;12.30;52.50;;;;;;20728072;28;20369;-77
2021/12/07 18:42:27;;;;;;;4.60;2.80;;;12.20;52.70;;;;;;20726673;28;20041;-77
2021/12/07 18:52:28;;;;;;;3.80;2.45;;;12.20;52.80;;;;;;20776374;28;20296;-75
2021/12/07 19:02:28;;;;;;;4.45;2.35;;;12.30;52.90;;;;;;20805418;28;20099;-76
2021/12/07 19:12:31;;;;;;;4.18;2.67;;;12.30;52.90;;;;;;20822911;28;20061;-75
2021/12/07 19:22:31;;;;;;;4.13;2.20;;;12.20;52.80;;;;;;20755603;28;20394;-75
2021/12/07 19:32:32;;;;;;;3.50;2.13;;;12.30;52.90;;;;;;20811043;28;20037;-76
2021/12/07 19:42:35;;;;;;;3.88;2.38;;;12.30;52.90;;;;;;20808641;28;20041;-76
2021/12/07 19:52:36;;;;;;;3.95;2.28;;;12.30;53.00;;;;;;20865160;28;20403;-76
2021/12/07 20:02:37;;;;;;;4.25;2.20;;;12.20;53.00;;;;;;20903582;28;20032;-75
2021/12/07 20:12:37;;;;;;;5.28;2.67;;;12.20;53.00;;;;;;20906491;28;20127;-74
2021/12/07 20:22:38;;;;;;;3.70;2.35;;;12.20;53.00;;;;;;20922613;28;20566;-75
2021/12/07 20:32:40;;;;;;;5.90;2.40;;;12.20;53.10;;;;;;20903543;28;20124;-76
2021/12/07 20:42:41;;;;;;;3.65;2.00;;;12.20;53.20;;;;;;20903319;28;20299;-77
2021/12/07 20:52:41;;;;;;;4.65;2.45;;;12.10;53.20;;;;;;20935985;28;20343;-76
2021/12/07 21:02:42;;;;;;;4.87;2.33;;;12.10;53.20;;;;;;20902155;28;20487;-76
2021/12/07 21:12:44;;;;;;;3.92;1.70;;;12.10;53.30;;;;;;20900781;28;20314;-75
2021/12/07 21:22:44;;;;;;;3.92;2.58;;;12.10;53.40;;;;;;20917109;28;20095;-76
2021/12/07 21:32:45;;;;;;;4.72;2.70;;;12.00;53.40;;;;;;20916118;28;20037;-75
2021/12/07 21:42:46;;;;;;;4.57;2.50;;;12.00;53.50;;;;;;20899477;28;20084;-75
2021/12/07 21:52:46;;;;;;;4.50;2.67;;;12.00;53.50;;;;;;20917273;28;20467;-75
2021/12/07 22:02:47;;;;;;;5.32;2.53;;;12.00;53.60;;;;;;20913952;28;20033;-77
2021/12/07 22:12:48;;;;;;;4.50;2.65;;;12.00;53.60;;;;;;20897325;28;20451;-77
2021/12/07 22:22:49;;;;;;;4.05;2.60;;;12.00;53.60;;;;;;20914909;28;20045;-75
2021/12/07 22:32:50;;;;;;;4.20;2.65;;;11.90;53.60;;;;;;20928924;28;20402;-77
2021/12/07 22:42:50;;;;;;;4.05;2.55;;;11.90;53.70;;;;;;20894455;28;20528;-75
2021/12/07 22:52:51;;;;;;;3.90;2.13;;;11.90;53.70;;;;;;20894292;28;20036;-75
2021/12/07 23:02:54;;;;;;;5.47;2.50;;;11.90;53.70;;;;;;20893541;28;20291;-75
2021/12/07 23:12:56;;;;;;;3.97;2.08;;;11.90;53.80;;;;;;20909148;28;20033;-75
2021/12/07 23:22:56;;;;;;;4.28;2.40;;;11.90;53.80;;;;;;20892635;28;20095;-75
2021/12/07 23:32:57;;;;;;;4.07;2.20;;;11.80;53.80;;;;;;20893705;28;20036;-75
2021/12/07 23:42:57;;;;;;;4.53;2.53;;;11.80;53.80;;;;;;20907338;28;20432;-77
2021/12/07 23:52:58;;;;;;;3.60;2.28;;;11.80;53.90;;;;;;20924236;28;20789;-76
